createdAt,value
2023-02-28T03:53:44.534Z,50.875427
2023-02-28T03:54:44.524Z,50.875427
2023-02-28T03:55:44.521Z,50.875427
2023-02-28T03:56:44.502Z,50.875332
2023-02-28T03:57:44.529Z,50.875362
2023-02-28T03:58:44.512Z,50.875370
2023-02-28T03:59:44.460Z,50.875404
2023-02-28T04:00:44.471Z,50.875378
2023-02-28T04:01:44.447Z,50.875286
2023-02-28T04:02:44.403Z,50.875263
2023-02-28T04:03:44.415Z,50.875263
2023-02-28T04:04:44.429Z,50.875263
2023-02-28T04:05:44.424Z,50.875263
2023-02-28T04:06:44.380Z,50.875412
2023-02-28T04:07:44.396Z,50.875317
2023-02-28T04:08:44.370Z,50.875313
2023-02-28T04:09:44.366Z,50.875313
2023-02-28T04:10:44.382Z,50.875172
2023-02-28T04:11:44.379Z,50.875347
2023-02-28T04:12:44.344Z,50.875320
2023-02-28T04:13:46.137Z,50.875351
2023-02-28T04:14:44.336Z,50.875134
2023-02-28T04:15:44.366Z,50.875267
2023-02-28T04:16:44.392Z,50.875546
2023-02-28T04:17:44.272Z,50.875603
2023-02-28T04:18:44.295Z,50.875576
2023-02-28T04:19:44.263Z,50.875454
2023-02-28T04:20:44.269Z,50.875465
2023-02-28T04:21:44.238Z,50.875355
2023-02-28T04:22:44.230Z,50.875492
2023-02-28T04:23:44.231Z,50.875492
2023-02-28T04:24:44.193Z,50.875492
2023-02-28T04:25:44.263Z,50.875492
2023-02-28T04:26:44.204Z,50.875492
2023-02-28T04:27:44.254Z,50.875492
2023-02-28T04:28:44.190Z,50.875492
2023-02-28T04:29:44.157Z,50.875492
2023-02-28T04:30:44.191Z,50.875492
2023-02-28T04:31:44.170Z,50.875492
2023-02-28T04:32:44.200Z,50.875492
2023-02-28T04:33:44.113Z,50.875492
2023-02-28T04:34:44.104Z,50.875492
2023-02-28T04:35:44.161Z,50.875492
2023-02-28T04:36:44.084Z,50.875492
2023-02-28T04:37:44.082Z,50.875492
2023-02-28T04:38:44.077Z,50.875492
2023-02-28T04:39:44.107Z,50.875492
2023-02-28T04:40:44.091Z,50.875492
2023-02-28T04:41:44.034Z,50.875492
2023-02-28T04:42:44.039Z,50.875492
2023-02-28T04:43:44.015Z,50.875492
2023-02-28T04:44:44.035Z,50.875492
2023-02-28T04:45:44.098Z,50.875492
2023-02-28T04:46:44.005Z,50.875492
2023-02-28T04:47:43.987Z,50.875492
2023-02-28T04:48:43.982Z,50.875492
2023-02-28T04:49:43.958Z,50.875492
2023-02-28T04:50:44.009Z,50.875492
2023-02-28T04:51:43.944Z,50.875492
2023-02-28T04:52:43.930Z,50.875492
2023-02-28T04:53:43.936Z,50.875492
2023-02-28T04:54:43.924Z,50.875492
2023-02-28T04:55:43.899Z,50.875492
2023-02-28T04:56:43.917Z,50.875492
2023-02-28T04:57:43.907Z,50.875492
2023-02-28T04:58:43.892Z,50.875492
2023-02-28T04:59:43.861Z,50.875492
2023-02-28T05:00:43.852Z,50.875492
2023-02-28T05:01:43.859Z,50.875492
2023-02-28T05:02:43.813Z,50.875492
2023-02-28T05:03:43.816Z,50.875492
2023-02-28T05:04:43.858Z,50.875492
2023-02-28T05:05:43.828Z,50.875492
2023-02-28T05:06:43.863Z,50.875492
2023-02-28T05:07:43.817Z,50.875492
2023-02-28T05:08:43.814Z,50.875492
2023-02-28T05:09:43.802Z,50.875492
2023-02-28T05:10:43.797Z,50.875492
2023-02-28T05:11:43.746Z,50.875492
2023-02-28T05:12:43.740Z,50.875492
2023-02-28T05:13:43.718Z,50.875492
2023-02-28T05:14:43.728Z,50.875492
2023-02-28T05:15:43.728Z,50.875492
2023-02-28T05:16:43.730Z,50.875492
2023-02-28T05:17:43.701Z,50.875492
2023-02-28T05:18:43.767Z,50.875492
2023-02-28T05:19:43.683Z,50.875492
2023-02-28T05:20:43.671Z,50.875492
2023-02-28T05:21:43.644Z,50.875492
2023-02-28T05:22:43.642Z,50.875492
2023-02-28T05:23:43.639Z,50.875492
2023-02-28T05:24:43.665Z,50.875183
2023-02-28T05:25:43.609Z,50.875023
2023-02-28T05:26:43.677Z,50.874622
2023-02-28T05:27:43.600Z,50.875484
2023-02-28T05:28:43.580Z,50.875542
2023-02-28T05:29:43.558Z,50.875587
2023-02-28T05:30:43.554Z,50.875622
2023-02-28T05:31:43.749Z,50.875523
2023-02-28T05:32:43.535Z,50.875404
2023-02-28T05:33:43.548Z,50.875317
2023-02-28T05:34:43.534Z,50.875271
2023-02-28T05:35:43.619Z,50.875187
2023-02-28T05:36:43.524Z,50.875244
2023-02-28T05:37:43.463Z,50.875294
2023-02-28T05:38:43.513Z,50.875275
2023-02-28T05:39:43.461Z,50.875065
2023-02-28T05:40:43.490Z,50.874527
2023-02-28T05:41:43.517Z,50.875069
2023-02-28T05:42:43.430Z,50.875484
2023-02-28T05:43:43.447Z,50.875359
2023-02-28T05:44:43.421Z,50.875244
2023-02-28T05:45:43.560Z,50.875183
2023-02-28T05:46:43.407Z,50.875420
2023-02-28T05:47:43.449Z,50.875286
2023-02-28T05:48:43.463Z,50.875240
2023-02-28T05:49:43.377Z,50.875267
2023-02-28T05:50:43.395Z,50.875286
2023-02-28T05:51:43.410Z,50.875195
2023-02-28T05:52:43.361Z,50.875328
2023-02-28T05:53:43.318Z,50.875328
2023-02-28T05:54:43.354Z,50.875465
2023-02-28T05:55:43.311Z,50.875332
2023-02-28T05:56:43.337Z,50.875290
2023-02-28T05:57:43.313Z,50.875294
2023-02-28T05:58:43.305Z,50.875340
2023-02-28T05:59:43.261Z,50.875362
2023-02-28T06:00:43.256Z,50.875393
2023-02-28T06:01:43.307Z,50.875378
2023-02-28T06:02:43.250Z,50.875565
2023-02-28T06:03:43.345Z,50.875473
2023-02-28T06:04:43.194Z,50.875362
2023-02-28T06:05:43.256Z,50.875027
2023-02-28T06:06:43.246Z,50.875534
2023-02-28T06:07:43.234Z,50.875710
2023-02-28T06:08:43.183Z,50.875439
2023-02-28T06:09:43.199Z,50.875031
2023-02-28T06:10:43.181Z,50.875290
2023-02-28T06:11:43.179Z,50.875317
2023-02-28T06:12:43.190Z,50.875271
2023-02-28T06:13:43.105Z,50.875290
2023-02-28T06:14:43.124Z,50.875145
2023-02-28T06:15:43.148Z,50.875164
2023-02-28T06:16:43.135Z,50.875164
2023-02-28T06:17:43.109Z,50.875011
2023-02-28T06:18:43.094Z,50.875061
2023-02-28T06:19:43.128Z,50.875381
2023-02-28T06:20:43.047Z,50.875202
2023-02-28T06:21:43.059Z,50.875168
2023-02-28T06:22:43.077Z,50.875252
2023-02-28T06:23:43.102Z,50.875385
2023-02-28T06:24:43.092Z,50.875618
2023-02-28T06:25:43.056Z,50.875381
2023-02-28T06:26:43.040Z,50.875504
2023-02-28T06:27:43.005Z,50.875435
2023-02-28T06:28:42.984Z,50.875404
2023-02-28T06:29:42.985Z,50.875336
2023-02-28T06:30:44.473Z,50.875336
2023-02-28T06:31:43.012Z,50.875153
2023-02-28T06:32:42.992Z,50.875526
2023-02-28T06:33:42.909Z,50.875721
2023-02-28T06:34:42.901Z,50.875687
2023-02-28T06:35:42.955Z,50.875732
2023-02-28T06:36:42.859Z,50.875732
2023-02-28T06:37:42.924Z,50.875874
2023-02-28T06:38:42.897Z,50.875893
2023-02-28T06:39:42.917Z,50.875610
2023-02-28T06:40:42.872Z,50.875648
2023-02-28T06:41:54.647Z,50.875538
2023-02-28T06:42:44.859Z,50.875687
2023-02-28T06:43:42.842Z,50.875679
2023-02-28T06:44:42.833Z,50.875885
2023-02-28T06:45:42.834Z,50.875984
2023-02-28T06:46:42.875Z,50.875954
2023-02-28T06:47:42.812Z,50.875790
2023-02-28T06:48:42.788Z,50.875618
2023-02-28T06:49:42.948Z,50.875534
2023-02-28T06:50:42.775Z,50.875572
2023-02-28T06:51:42.767Z,50.875584
2023-02-28T06:52:42.796Z,50.875618
2023-02-28T06:53:42.762Z,50.875557
2023-02-28T06:54:42.727Z,50.875694
2023-02-28T06:55:42.742Z,50.875694
2023-02-28T06:56:42.720Z,50.875694
2023-02-28T06:57:42.728Z,50.875694
2023-02-28T06:58:42.682Z,50.875694
2023-02-28T06:59:43.030Z,50.875694
2023-02-28T07:00:42.760Z,50.835293
2023-02-28T07:01:42.730Z,50.834980
2023-02-28T07:02:42.718Z,50.834980
2023-02-28T07:03:42.686Z,50.834980
2023-02-28T07:04:43.021Z,50.834980
2023-02-28T07:05:42.686Z,50.834980
2023-02-28T07:06:42.701Z,50.834980
2023-02-28T07:07:42.669Z,50.834980
2023-02-28T07:08:42.625Z,50.834980
2023-02-28T07:09:42.627Z,50.834980
2023-02-28T07:10:42.592Z,50.834980
2023-02-28T07:11:42.559Z,50.834980
2023-02-28T07:12:42.635Z,50.834980
2023-02-28T07:13:42.644Z,50.834980
2023-02-28T07:14:42.527Z,50.834980
2023-02-28T07:15:44.262Z,50.834980
2023-02-28T07:16:43.502Z,50.834980
2023-02-28T07:17:42.501Z,50.834980
2023-02-28T07:18:42.608Z,50.834980
2023-02-28T07:19:42.470Z,50.834980
2023-02-28T07:20:42.487Z,50.834980
2023-02-28T07:21:42.454Z,50.834980
2023-02-28T07:22:42.470Z,50.834980
2023-02-28T07:23:42.425Z,50.834980
2023-02-28T07:24:42.428Z,50.834980
2023-02-28T07:25:42.409Z,50.834980
2023-02-28T07:26:42.421Z,50.834980
2023-02-28T07:27:42.388Z,50.834980
2023-02-28T07:28:43.398Z,50.834980
2023-02-28T07:29:42.358Z,50.834980
2023-02-28T07:30:42.360Z,50.834980
2023-02-28T07:31:42.403Z,50.834980
2023-02-28T07:32:44.750Z,50.834980
2023-02-28T07:33:43.374Z,50.834980
2023-02-28T07:34:42.865Z,50.834980
2023-02-28T07:35:42.324Z,50.834980
2023-02-28T07:36:42.302Z,50.834980
2023-02-28T07:37:42.292Z,50.834980
2023-02-28T07:38:42.335Z,50.834980
2023-02-28T07:39:42.273Z,50.834980
2023-02-28T07:40:42.529Z,50.834980
2023-02-28T07:41:42.251Z,50.834980
2023-02-28T07:42:42.241Z,50.834980
2023-02-28T07:43:42.270Z,50.834980
2023-02-28T07:44:42.224Z,50.834980
2023-02-28T07:45:42.212Z,50.834980
2023-02-28T07:46:42.242Z,50.834980
2023-02-28T07:47:42.195Z,50.834980
2023-02-28T07:48:42.192Z,50.834980
2023-02-28T07:49:42.161Z,50.834980
2023-02-28T07:50:43.176Z,50.834980
2023-02-28T07:51:42.146Z,50.834980
2023-02-28T07:52:42.155Z,50.834980
2023-02-28T07:53:42.174Z,50.834980
2023-02-28T07:54:42.130Z,50.834980
2023-02-28T07:55:42.109Z,50.834980
2023-02-28T07:56:42.105Z,50.834980
2023-02-28T07:57:42.108Z,50.834980
2023-02-28T07:58:42.078Z,50.834980
2023-02-28T07:59:42.059Z,50.834980
2023-02-28T08:00:42.100Z,50.834980
2023-02-28T08:01:42.052Z,50.834980
2023-02-28T08:02:42.130Z,50.834980
2023-02-28T08:03:42.053Z,50.834980
2023-02-28T08:04:42.023Z,50.834980
2023-02-28T08:05:41.985Z,50.834980
2023-02-28T08:06:41.980Z,50.834980
2023-02-28T08:07:41.981Z,50.834980
2023-02-28T08:08:41.984Z,50.834980
2023-02-28T08:09:41.956Z,50.834980
2023-02-28T08:10:41.924Z,50.834980
2023-02-28T08:11:41.953Z,50.834980
2023-02-28T08:12:41.916Z,50.834980
2023-02-28T08:13:41.940Z,50.834980
2023-02-28T08:14:41.909Z,50.834980
2023-02-28T08:15:41.900Z,50.834980
2023-02-28T08:16:41.878Z,50.834980
2023-02-28T08:17:41.898Z,50.834980
2023-02-28T08:18:41.919Z,50.834980
2023-02-28T08:19:41.872Z,50.834980
2023-02-28T08:20:41.878Z,50.834980
2023-02-28T08:21:41.863Z,50.834980
2023-02-28T08:22:43.662Z,50.834980
2023-02-28T08:23:41.829Z,50.834980
2023-02-28T08:24:41.803Z,50.834980
2023-02-28T08:25:41.834Z,50.834980
2023-02-28T08:26:41.782Z,50.834980
2023-02-28T08:27:41.819Z,50.834980
2023-02-28T08:28:41.773Z,50.834980
2023-02-28T08:29:41.767Z,50.834980
2023-02-28T08:30:41.737Z,50.834980
2023-02-28T08:31:41.750Z,50.834980
2023-02-28T08:32:41.826Z,50.834980
2023-02-28T08:33:41.728Z,50.834980
2023-02-28T08:34:41.700Z,50.834980
2023-02-28T08:35:41.773Z,50.834980
2023-02-28T08:36:41.791Z,50.834980
2023-02-28T08:37:41.705Z,50.834980
2023-02-28T08:38:41.685Z,50.834980
2023-02-28T08:39:41.693Z,50.834980
2023-02-28T08:40:41.688Z,50.834980
2023-02-28T08:41:41.659Z,50.834980
2023-02-28T08:42:41.630Z,50.834980
2023-02-28T08:43:41.684Z,50.834980
2023-02-28T08:44:41.662Z,50.834980
2023-02-28T08:45:41.666Z,50.834980
2023-02-28T08:46:41.606Z,50.834980
2023-02-28T08:47:41.580Z,50.834980
2023-02-28T08:48:41.606Z,50.834980
2023-02-28T08:49:41.573Z,50.834980
2023-02-28T08:50:42.107Z,50.834980
2023-02-28T08:51:41.533Z,50.834980
2023-02-28T08:52:41.550Z,50.834980
2023-02-28T08:53:41.544Z,50.834980
2023-02-28T08:54:41.516Z,50.834980
2023-02-28T08:55:41.503Z,50.834980
2023-02-28T08:56:41.474Z,50.834980
2023-02-28T08:57:41.503Z,50.834980
2023-02-28T08:58:41.487Z,50.834980
2023-02-28T08:59:41.474Z,50.834980
2023-02-28T09:00:41.901Z,50.834980
2023-02-28T09:01:41.407Z,50.834980
2023-02-28T09:02:41.419Z,50.834980
2023-02-28T09:03:41.467Z,50.834980
2023-02-28T09:04:41.397Z,50.834980
2023-02-28T09:05:41.398Z,50.834980
2023-02-28T09:06:41.360Z,50.834980
2023-02-28T09:07:41.360Z,50.834980
2023-02-28T09:08:41.352Z,50.834980
2023-02-28T09:09:41.316Z,50.834980
2023-02-28T09:10:41.355Z,50.834980
2023-02-28T09:11:41.285Z,50.834980
2023-02-28T09:12:41.336Z,50.834980
2023-02-28T09:13:41.323Z,50.834980
2023-02-28T09:14:41.298Z,50.834980
2023-02-28T09:15:41.286Z,50.834980
2023-02-28T09:16:41.309Z,50.834980
2023-02-28T09:17:41.258Z,50.834980
2023-02-28T09:18:41.239Z,50.834980
2023-02-28T09:19:41.264Z,50.834980
2023-02-28T09:20:41.459Z,50.834980
2023-02-28T09:21:41.248Z,50.834980
2023-02-28T09:22:41.209Z,50.834980
2023-02-28T09:23:41.201Z,50.834980
2023-02-28T09:25:42.198Z,50.834980
2023-02-28T09:26:43.453Z,50.834980
2023-02-28T09:27:43.189Z,50.834980
2023-02-28T09:28:42.150Z,50.834980
2023-02-28T09:29:41.175Z,50.834980
2023-02-28T09:30:41.181Z,50.834980
2023-02-28T09:31:41.161Z,50.834980
2023-02-28T09:32:41.102Z,50.834980
2023-02-28T09:33:41.146Z,50.834980
2023-02-28T09:34:41.207Z,50.834980
2023-02-28T09:35:41.086Z,50.834980
2023-02-28T09:36:45.885Z,50.834980
2023-02-28T09:37:43.082Z,50.834980
2023-02-28T09:38:41.026Z,50.834980
2023-02-28T09:39:41.038Z,50.834980
2023-02-28T09:40:41.021Z,50.834980
2023-02-28T09:41:41.012Z,50.834980
2023-02-28T09:42:41.002Z,50.834980
2023-02-28T09:43:40.974Z,50.834980
2023-02-28T09:44:41.956Z,50.834980
2023-02-28T09:45:41.049Z,50.834980
2023-02-28T09:46:40.990Z,50.834980
2023-02-28T09:47:40.995Z,50.834980
2023-02-28T09:48:41.331Z,50.834980
2023-02-28T09:49:41.940Z,50.834980
2023-02-28T09:50:40.921Z,50.834980
2023-02-28T09:51:40.910Z,50.834980
2023-02-28T09:52:40.922Z,50.834980
2023-02-28T09:53:41.060Z,50.834980
2023-02-28T09:54:40.954Z,50.834980
2023-02-28T09:55:46.616Z,50.834980
2023-02-28T09:56:42.861Z,50.834980
2023-02-28T09:57:40.828Z,50.875465
2023-02-28T09:58:40.824Z,50.875423
2023-02-28T09:59:40.817Z,50.875866
2023-02-28T10:00:40.775Z,50.875916
2023-02-28T10:01:40.812Z,50.875103
2023-02-28T10:02:40.803Z,50.875282
2023-02-28T10:03:40.857Z,50.875671
2023-02-28T10:04:40.905Z,50.875523
2023-02-28T10:05:42.766Z,50.875603
2023-02-28T10:06:40.756Z,50.875843
2023-02-28T10:07:40.836Z,50.875481
2023-02-28T10:08:40.830Z,50.875496
2023-02-28T10:09:40.823Z,50.875652
2023-02-28T10:10:40.724Z,50.875408
2023-02-28T10:11:40.722Z,50.875160
2023-02-28T10:12:40.676Z,50.875568
2023-02-28T10:13:40.693Z,50.875431
2023-02-28T10:14:40.697Z,50.875572
2023-02-28T10:15:40.747Z,50.875568
2023-02-28T10:16:40.656Z,50.875622
2023-02-28T10:17:54.776Z,50.875713
2023-02-28T10:18:41.630Z,50.875671
2023-02-28T10:19:40.703Z,50.875671
2023-02-28T10:20:41.623Z,50.875671
2023-02-28T10:21:40.616Z,50.875671
2023-02-28T10:22:40.687Z,50.875671
2023-02-28T10:23:40.674Z,50.875671
2023-02-28T10:24:40.592Z,50.875671
2023-02-28T10:25:40.548Z,50.875671
2023-02-28T10:26:40.567Z,50.875671
2023-02-28T10:27:40.579Z,50.875671
2023-02-28T10:28:40.524Z,50.875671
2023-02-28T10:29:40.539Z,50.875671
2023-02-28T10:30:40.521Z,50.875671
2023-02-28T10:31:40.561Z,50.875671
2023-02-28T10:32:40.501Z,50.875671
2023-02-28T10:33:40.481Z,50.875671
2023-02-28T10:34:40.472Z,50.875671
2023-02-28T10:35:40.509Z,50.875671
2023-02-28T10:36:40.440Z,50.875671
2023-02-28T10:37:40.438Z,50.875671
2023-02-28T10:38:40.446Z,50.875671
2023-02-28T10:39:40.403Z,50.875671
2023-02-28T10:40:40.435Z,50.875671
2023-02-28T10:41:40.416Z,50.875671
2023-02-28T10:42:40.416Z,50.875671
2023-02-28T10:43:40.343Z,50.875671
2023-02-28T10:44:40.338Z,50.875671
2023-02-28T10:45:40.334Z,50.875671
2023-02-28T10:46:40.355Z,50.875671
2023-02-28T10:47:40.314Z,50.875671
2023-02-28T10:48:40.294Z,50.875671
2023-02-28T10:49:40.279Z,50.875671
2023-02-28T10:50:40.277Z,50.875671
2023-02-28T10:51:40.276Z,50.875671
2023-02-28T10:52:40.248Z,50.875671
2023-02-28T10:53:57.708Z,50.875671
2023-02-28T10:54:42.237Z,50.875671
2023-02-28T10:55:41.892Z,50.875671
2023-02-28T10:56:40.356Z,50.875671
2023-02-28T10:57:40.242Z,50.875671
2023-02-28T10:58:40.210Z,50.875671
2023-02-28T10:59:40.210Z,50.875671
2023-02-28T11:00:41.547Z,50.875671
2023-02-28T11:01:40.253Z,50.875671
2023-02-28T11:02:40.219Z,50.875671
2023-02-28T11:03:40.161Z,50.875671
2023-02-28T11:04:41.340Z,50.875671
2023-02-28T11:05:40.196Z,50.875671
2023-02-28T11:06:40.166Z,50.875671
2023-02-28T11:07:52.966Z,50.875671
2023-02-28T11:08:42.114Z,50.875671
2023-02-28T11:09:40.096Z,50.875671
2023-02-28T11:10:40.137Z,50.875671
2023-02-28T11:11:40.107Z,50.875671
2023-02-28T11:12:47.277Z,50.875671
2023-02-28T11:13:42.075Z,50.875671
2023-02-28T11:14:40.079Z,50.875671
2023-02-28T11:15:40.170Z,50.875671
2023-02-28T11:16:40.120Z,50.875671
2023-02-28T11:17:40.095Z,50.875671
2023-02-28T11:18:40.064Z,50.875671
2023-02-28T11:19:40.047Z,50.875671
2023-02-28T11:20:40.040Z,50.875671
2023-02-28T11:21:40.001Z,50.875671
2023-02-28T11:22:40.038Z,50.875671
2023-02-28T11:23:40.020Z,50.875671
2023-02-28T11:24:39.990Z,50.875671
2023-02-28T11:25:39.998Z,50.875671
2023-02-28T11:26:39.971Z,50.875671
2023-02-28T11:27:39.964Z,50.875671
2023-02-28T11:28:39.936Z,50.875671
2023-02-28T11:29:39.923Z,50.875671
2023-02-28T11:30:39.972Z,50.875671
2023-02-28T11:31:39.945Z,50.875671
2023-02-28T11:32:39.982Z,50.875671
2023-02-28T11:33:39.864Z,50.875671
2023-02-28T11:34:39.884Z,50.875671
2023-02-28T11:35:39.875Z,50.875671
2023-02-28T11:36:39.859Z,50.875671
2023-02-28T11:37:39.849Z,50.875671
2023-02-28T11:38:39.830Z,50.875671
2023-02-28T11:39:39.822Z,50.875671
2023-02-28T11:40:39.830Z,50.875381
2023-02-28T11:41:41.400Z,50.875404
2023-02-28T11:42:40.803Z,50.875317
2023-02-28T11:43:39.779Z,50.875351
2023-02-28T11:44:39.790Z,50.875370
2023-02-28T11:45:39.750Z,50.875366
2023-02-28T11:46:40.781Z,50.875374
2023-02-28T11:47:39.740Z,50.875374
2023-02-28T11:48:39.741Z,50.875370
2023-02-28T11:49:39.729Z,50.875397
2023-02-28T11:50:39.745Z,50.875401
2023-02-28T11:51:39.719Z,50.875393
2023-02-28T11:52:39.690Z,50.875477
2023-02-28T11:53:39.693Z,50.875389
2023-02-28T11:54:39.692Z,50.875332
2023-02-28T11:55:39.710Z,50.875320
2023-02-28T11:56:39.690Z,50.875370
2023-02-28T11:57:39.613Z,50.875416
2023-02-28T11:58:39.648Z,50.875435
2023-02-28T11:59:39.659Z,50.875332
2023-02-28T12:00:39.610Z,50.875389
2023-02-28T12:01:39.612Z,50.875416
2023-02-28T12:02:39.673Z,50.875240
2023-02-28T12:03:39.662Z,50.875248
2023-02-28T12:04:39.605Z,50.875450
2023-02-28T12:05:39.601Z,50.875267
2023-02-28T12:06:39.544Z,50.875416
2023-02-28T12:07:39.563Z,50.875404
2023-02-28T12:08:39.535Z,50.875496
2023-02-28T12:09:39.548Z,50.875420
2023-02-28T12:10:40.176Z,50.875282
2023-02-28T12:11:39.545Z,50.875225
2023-02-28T12:12:39.522Z,50.875305
2023-02-28T12:13:39.497Z,50.875404
2023-02-28T12:14:39.491Z,50.875572
2023-02-28T12:15:39.494Z,50.875504
2023-02-28T12:16:39.513Z,50.875526
2023-02-28T12:17:39.473Z,50.875366
2023-02-28T12:18:39.473Z,50.875298
2023-02-28T12:19:39.461Z,50.875259
2023-02-28T12:20:39.438Z,50.875008
2023-02-28T12:21:39.460Z,50.875164
2023-02-28T12:22:39.436Z,50.875164
2023-02-28T12:23:39.389Z,50.875164
2023-02-28T12:24:39.394Z,50.875164
2023-02-28T12:25:39.398Z,50.875164
2023-02-28T12:26:39.390Z,50.875164
2023-02-28T12:27:39.383Z,50.875164
2023-02-28T12:28:39.405Z,50.875164
2023-02-28T12:29:39.313Z,50.875164
2023-02-28T12:30:39.331Z,50.875164
2023-02-28T12:31:39.431Z,50.875164
2023-02-28T12:32:39.380Z,50.875164
2023-02-28T12:33:39.296Z,50.875164
2023-02-28T12:34:39.271Z,50.875164
2023-02-28T12:35:40.267Z,50.875164
2023-02-28T12:36:39.244Z,50.875164
2023-02-28T12:37:39.216Z,50.875164
2023-02-28T12:38:39.187Z,50.875164
2023-02-28T12:39:50.459Z,50.875164
2023-02-28T12:40:40.154Z,50.875164
2023-02-28T12:41:39.195Z,50.875164
2023-02-28T12:43:47.291Z,50.875164
2023-02-28T12:44:26.499Z,50.875164
2023-02-28T12:45:13.948Z,50.875164
2023-02-28T12:46:09.489Z,50.875164
2023-02-28T12:46:41.096Z,50.875164
2023-02-28T12:47:39.114Z,50.875164
2023-02-28T12:48:39.214Z,50.875164
2023-02-28T12:49:45.455Z,50.875164
2023-02-28T12:51:40.133Z,50.875164
2023-02-28T12:52:39.127Z,50.875164
2023-02-28T12:53:39.078Z,50.875164
2023-02-28T12:54:39.085Z,50.875164
2023-02-28T12:55:39.113Z,50.875164
2023-02-28T12:56:39.038Z,50.875164
2023-02-28T12:57:39.018Z,50.875164
2023-02-28T12:58:39.049Z,50.875164
2023-02-28T12:59:39.001Z,50.875164
2023-02-28T13:00:38.990Z,50.875164
2023-02-28T13:01:39.111Z,50.875164
2023-02-28T13:02:39.066Z,50.875164
2023-02-28T13:03:38.958Z,50.875164
2023-02-28T13:04:38.935Z,50.875164
2023-02-28T13:05:40.023Z,50.875164
2023-02-28T13:06:38.939Z,50.875164
2023-02-28T13:07:38.932Z,50.875164
2023-02-28T13:08:40.021Z,50.875164
2023-02-28T13:09:39.900Z,50.875164
2023-02-28T13:10:38.870Z,50.875164
2023-02-28T13:11:39.894Z,50.875164
2023-02-28T13:12:38.883Z,50.875164
2023-02-28T13:13:38.856Z,50.875164
2023-02-28T13:14:38.840Z,50.875164
2023-02-28T13:15:38.850Z,50.875164
2023-02-28T13:16:38.866Z,50.875164
2023-02-28T13:17:38.809Z,50.875164
2023-02-28T13:18:38.812Z,50.875362
2023-02-28T13:19:38.819Z,50.875286
2023-02-28T13:20:38.856Z,50.875423
2023-02-28T13:21:38.783Z,50.875404
2023-02-28T13:22:38.791Z,50.875427
2023-02-28T13:23:38.765Z,50.875450
2023-02-28T13:24:38.724Z,50.875359
2023-02-28T13:25:38.729Z,50.875484
2023-02-28T13:26:38.706Z,50.875340
2023-02-28T13:27:38.716Z,50.875088
2023-02-28T13:28:38.711Z,50.875164
2023-02-28T13:29:38.683Z,50.875221
2023-02-28T13:30:38.719Z,50.875244
2023-02-28T13:31:38.678Z,50.875328
2023-02-28T13:32:38.657Z,50.875412
2023-02-28T13:33:38.642Z,50.875374
2023-02-28T13:34:38.626Z,50.875385
2023-02-28T13:35:38.686Z,50.875374
2023-02-28T13:36:38.610Z,50.875412
2023-02-28T13:37:38.615Z,50.875423
2023-02-28T13:38:38.726Z,50.875404
2023-02-28T13:39:38.580Z,50.875374
2023-02-28T13:40:38.568Z,50.875294
2023-02-28T13:41:38.567Z,50.875233
2023-02-28T13:42:38.613Z,50.875313
2023-02-28T13:43:38.543Z,50.875454
2023-02-28T13:44:38.537Z,50.875404
2023-02-28T13:45:38.525Z,50.875389
2023-02-28T13:46:38.612Z,50.875385
2023-02-28T13:47:38.548Z,50.875458
2023-02-28T13:48:38.505Z,50.875397
2023-02-28T13:49:38.499Z,50.875416
2023-02-28T13:50:38.616Z,50.875336
2023-02-28T13:51:38.471Z,50.875408
2023-02-28T13:52:38.471Z,50.875427
2023-02-28T13:53:38.450Z,50.875401
2023-02-28T13:54:38.456Z,50.875416
2023-02-28T13:55:38.514Z,50.875328
2023-02-28T13:56:40.137Z,50.875275
2023-02-28T13:57:38.461Z,50.875320
2023-02-28T13:58:38.448Z,50.875290
2023-02-28T13:59:38.414Z,50.875298
2023-02-28T14:00:38.425Z,50.875328
2023-02-28T14:01:38.422Z,50.875404
2023-02-28T14:02:38.428Z,50.875458
2023-02-28T14:03:38.388Z,50.875553
2023-02-28T14:04:38.394Z,50.875446
2023-02-28T14:05:38.363Z,50.875404
2023-02-28T14:06:38.342Z,50.875347
2023-02-28T14:07:38.361Z,50.875404
2023-02-28T14:08:38.329Z,50.875362
2023-02-28T14:09:38.301Z,50.875538
2023-02-28T14:10:38.282Z,50.875286
2023-02-28T14:11:39.307Z,50.875282
2023-02-28T14:12:38.300Z,50.875298
2023-02-28T14:13:38.277Z,50.875278
2023-02-28T14:14:38.287Z,50.875313
2023-02-28T14:15:38.247Z,50.875381
2023-02-28T14:16:38.235Z,50.875340
2023-02-28T14:17:38.292Z,50.875359
2023-02-28T14:18:38.201Z,50.875275
2023-02-28T14:19:38.196Z,50.875305
2023-02-28T14:20:38.188Z,50.875381
2023-02-28T14:21:38.178Z,50.875370
2023-02-28T14:22:38.177Z,50.875454
2023-02-28T14:23:38.150Z,50.875458
2023-02-28T14:24:38.145Z,50.875374
2023-02-28T14:25:38.131Z,50.875229
2023-02-28T14:26:38.126Z,50.875530
2023-02-28T14:27:38.106Z,50.875347
2023-02-28T14:28:38.113Z,50.875294
2023-02-28T14:29:38.091Z,50.875237
2023-02-28T14:30:38.092Z,50.875149
2023-02-28T14:31:38.151Z,50.874863
2023-02-28T14:32:38.060Z,50.875179
2023-02-28T14:33:38.072Z,50.875351
2023-02-28T14:34:38.038Z,50.875343
2023-02-28T14:35:38.068Z,50.875198
2023-02-28T14:36:38.036Z,50.875336
2023-02-28T14:37:38.013Z,50.875183
2023-02-28T14:38:38.026Z,50.875309
2023-02-28T14:39:38.042Z,50.875557
2023-02-28T14:40:37.999Z,50.875359
2023-02-28T14:41:38.022Z,50.875374
2023-02-28T14:42:38.007Z,50.875507
2023-02-28T14:43:37.967Z,50.875500
2023-02-28T14:44:37.950Z,50.875469
2023-02-28T14:45:37.940Z,50.875267
2023-02-28T14:46:37.998Z,50.875446
2023-02-28T14:47:37.936Z,50.875580
2023-02-28T14:48:37.934Z,50.875229
2023-02-28T14:49:37.894Z,50.875328
2023-02-28T14:50:37.891Z,50.875431
2023-02-28T14:51:37.867Z,50.875298
2023-02-28T14:52:37.868Z,50.875385
2023-02-28T14:53:37.889Z,50.875374
2023-02-28T14:54:37.850Z,50.875328
2023-02-28T14:55:37.838Z,50.875751
2023-02-28T14:56:37.844Z,50.876179
2023-02-28T14:57:37.815Z,50.875511
2023-02-28T14:58:37.817Z,50.875362
2023-02-28T14:59:37.781Z,50.875240
2023-02-28T15:00:37.788Z,50.875240
2023-02-28T15:01:37.817Z,50.875675
2023-02-28T15:02:37.766Z,50.875336
2023-02-28T15:03:37.761Z,50.875492
2023-02-28T15:04:37.755Z,50.875175
2023-02-28T15:05:37.716Z,50.875225
2023-02-28T15:06:37.736Z,50.875294
2023-02-28T15:07:37.706Z,50.875519
2023-02-28T15:08:37.736Z,50.875519
2023-02-28T15:09:37.696Z,50.875519
2023-02-28T15:10:37.685Z,50.875721
2023-02-28T15:11:37.671Z,50.875767
2023-02-28T15:12:37.663Z,50.875763
2023-02-28T15:13:37.664Z,50.875641
2023-02-28T15:14:37.633Z,50.875343
2023-02-28T15:15:46.110Z,50.875599
2023-02-28T15:16:39.771Z,50.875465
2023-02-28T15:17:37.612Z,50.875175
2023-02-28T15:18:37.609Z,50.875301
2023-02-28T15:19:37.608Z,50.875385